| Date | Time | Temp. (oF) | Dew Point (oF) | Rel. Hum. (%) | Press. (in.) | Wind Dir. | Wind Speed (mph) | Hourly Rainfall (in.) |
|
|---|---|---|---|---|---|---|---|---|---|
| 1 | 01/25 | 00:00 | 20 | 14 | 80 | 29.91 | SSW | 5 | 0.00 |
| 2 | 01/24 | 23:00 | 19 | 15 | 85 | 29.91 | WNW | 3 | 0.00 |
| 3 | 01/24 | 22:00 | 19 | 15 | 87 | 29.91 | SW | 3 | 0.00 |
| 4 | 01/24 | 21:00 | 19 | 16 | 89 | 29.92 | SW | 5 | 0.00 |
| 5 | miss | miss | miss | miss | miss | miss | miss | miss | |
| 6 | 01/24 | 20:20 | 19 | 15 | 87 | 29.93 | SSW | 4 | 0.00 |
| 7 | miss | miss | miss | miss | miss | miss | miss | miss | |
| 8 | 01/24 | 20:18 | 19 | 15 | 87 | 29.93 | WSW | 4 | 0.00 |
| 9 | miss | miss | miss | miss | miss | miss | miss | miss | |
| 10 | 01/24 | 20:16 | 19 | 15 | 87 | 29.93 | W | 4 | 0.00 |
| 11 | miss | miss | miss | miss | miss | miss | miss | miss | |
| 12 | 01/24 | 20:14 | 19 | 15 | 87 | 29.93 | SW | 2 | 0.00 |
| 13 | miss | miss | miss | miss | miss | miss | miss | miss | |
| 14 | 01/24 | 20:12 | 19 | 15 | 87 | 29.92 | SW | 3 | 0.00 |
| 15 | miss | miss | miss | miss | miss | miss | miss | miss | |
| 16 | 01/24 | 20:10 | 19 | 15 | 86 | 29.92 | WSW | 3 | 0.00 |
| 17 | miss | miss | miss | miss | miss | miss | miss | miss | |
| 18 | 01/24 | 20:08 | 19 | 15 | 86 | 29.93 | W | 3 | 0.00 |
| 19 | miss | miss | miss | miss | miss | miss | miss | miss | |
| 20 | 01/24 | 20:06 | 19 | 15 | 86 | 29.93 | WSW | 2 | 0.00 |
| 21 | miss | miss | miss | miss | miss | miss | miss | miss | |
| 22 | 01/24 | 20:04 | 19 | 15 | 86 | 29.92 | WSW | 2 | 0.00 |
| 23 | miss | miss | miss | miss | miss | miss | miss | miss | |
| 24 | 01/24 | 20:02 | 19 | 15 | 86 | 29.92 | SW | 3 | 0.00 |
| 25 | miss | miss | miss | miss | miss | miss | miss | miss | |
| 26 | 01/24 | 20:01 | 19 | 15 | 86 | 29.92 | WSW | 4 | 0.00 |
| 27 | miss | miss | miss | miss | miss | miss | miss | miss | |
| 28 | 01/24 | 20:01 | 19 | 15 | 86 | 29.92 | WSW | 4 | 0.00 |
| 29 | 01/24 | 20:00 | 19 | 15 | 86 | 29.92 | S | 3 | 0.01 |
| 30 | 01/24 | 19:00 | 19 | 15 | 85 | 29.92 | SW | 5 | 0.00 |
| 31 | 01/24 | 18:00 | 17 | 15 | 94 | 29.92 | S | 6 | 0.00 |
| 32 | 01/24 | 17:00 | 16 | 14 | 94 | 29.94 | SSW | 4 | 0.00 |
| 33 | 01/24 | 16:00 | 17 | 15 | 95 | 29.98 | SSW | 1 | 0.00 |
| 34 | 01/24 | 15:00 | 17 | 12 | 82 | 29.99 | SSW | 8 | 0.00 |
| 35 | 01/24 | 14:00 | 20 | 3 | 49 | 30.03 | WSW | 6 | 0.03 |
| 36 | 01/24 | 13:00 | 19 | 3 | 50 | 30.07 | SSW | 6 | 0.07 |
| 37 | 01/24 | 12:00 | 18 | 3 | 52 | 30.14 | SSW | 6 | 0.07 |
| 38 | 01/24 | 11:00 | 15 | 1 | 54 | 30.17 | SSW | 8 | 0.05 |
| 39 | 01/24 | 10:00 | 12 | 0 | 57 | 30.20 | SSW | 2 | 0.00 |
| 40 | 01/24 | 09:00 | 10 | 0 | 64 | 30.23 | WSW | 1 | 0.00 |
| 41 | 01/24 | 08:00 | 5 | -1 | 73 | 30.25 | W | 1 | 0.00 |
| 42 | 01/24 | 07:00 | 5 | -2 | 72 | 30.25 | W | 4 | 0.00 |
| 43 | 01/24 | 06:00 | 5 | -2 | 71 | 30.25 | WSW | 1 | 0.00 |
| 44 | 01/24 | 05:00 | 5 | -2 | 69 | 30.24 | WNW | 5 | 0.00 |
| 45 | 01/24 | 04:00 | 6 | -3 | 64 | 30.24 | WNW | 4 | 0.00 |
| 46 | 01/24 | 03:00 | 6 | -4 | 61 | 30.24 | WNW | 4 | 0.00 |
| 47 | 01/24 | 02:00 | 6 | -4 | 60 | 30.24 | NW | 7 | 0.00 |
| 48 | 01/24 | 01:00 | 7 | -5 | 57 | 30.24 | WNW | 4 | 0.00 |
| 49 | 01/24 | 00:00 | 9 | -4 | 54 | 30.24 | NW | 10 | -0.23 |
| 50 | 01/23 | 23:00 | 10 | -4 | 51 | 30.24 | WNW | 5 | 0.00 |
| 51 | 01/23 | 22:00 | 10 | -4 | 51 | 30.23 | NNW | 10 | 0.00 |
| 52 | 01/23 | 21:00 | 11 | -2 | 53 | 30.21 | NW | 6 | 0.00 |
| 53 | 01/23 | 20:00 | 11 | -2 | 55 | 30.17 | NNW | 7 | 0.00 |
| 54 | 01/23 | 19:00 | 13 | 0 | 53 | 30.13 | NNW | 12 | 0.00 |
| 55 | 01/23 | 18:00 | 13 | 0 | 55 | 30.11 | N | 7 | 0.00 |
| 56 | 01/23 | 17:00 | 15 | 3 | 59 | 30.07 | WNW | 14 | 0.00 |
| 57 | 01/23 | 16:00 | 16 | 4 | 61 | 30.03 | WNW | 16 | 0.00 |
| 58 | 01/23 | 15:00 | 16 | 5 | 63 | 30.00 | NW | 19 | 0.00 |
| 59 | 01/23 | 14:00 | 16 | 6 | 66 | 29.97 | NW | 17 | 0.00 |
| 60 | 01/23 | 13:00 | 16 | 7 | 68 | 29.95 | WNW | 12 | 0.00 |
| 61 | 01/23 | 12:00 | 16 | 8 | 72 | 29.94 | NNW | 16 | 0.00 |
| 62 | 01/23 | 11:00 | 14 | 8 | 78 | 29.93 | NW | 13 | 0.00 |
| 63 | 01/23 | 10:00 | 12 | 7 | 83 | 29.90 | NW | 15 | 0.00 |
| 64 | 01/23 | 09:00 | 11 | 7 | 87 | 29.86 | WNW | 16 | 0.00 |
| 65 | 01/23 | 08:00 | 11 | 8 | 88 | 29.81 | NW | 7 | 0.00 |
| 66 | 01/23 | 07:00 | 10 | 7 | 91 | 29.76 | NNW | 9 | 0.00 |
| 67 | 01/23 | 06:00 | 9 | 7 | 95 | 29.71 | NW | 11 | 0.00 |
| 68 | 01/23 | 05:00 | 12 | 11 | 98 | 29.66 | NW | 17 | 0.00 |
| 69 | 01/23 | 04:00 | 16 | 15 | 100 | 29.63 | NW | 16 | 0.00 |
| 70 | 01/23 | 03:00 | 14 | 14 | 100 | 29.62 | WNW | 5 | 0.00 |
| 71 | 01/23 | 02:00 | 13 | 13 | 100 | 29.61 | WSW | 7 | 0.00 |
| 72 | 01/23 | 01:00 | 13 | 13 | 100 | 29.63 | WSW | 4 | 0.00 |
| 73 | 01/23 | 00:00 | 11 | 10 | 100 | 29.59 | SW | 3 | 0.00 |